sensor_id;sensor_type;location;lat;lon;timestamp;P1;durP1;ratioP1;P2;durP2;ratioP2
73919;SDS011;62266;53.348;-1.496;2023-06-22T03:42:58;6.07;;;3.80;;
73919;SDS011;62266;53.348;-1.496;2023-06-22T03:45:42;5.13;;;3.60;;
73919;SDS011;62266;53.348;-1.496;2023-06-22T03:48:28;4.88;;;3.38;;
73919;SDS011;62266;53.348;-1.496;2023-06-22T03:51:12;5.72;;;3.90;;
73919;SDS011;62266;53.348;-1.496;2023-06-22T03:53:56;5.35;;;3.50;;
73919;SDS011;62266;53.348;-1.496;2023-06-22T03:56:40;6.57;;;4.10;;
73919;SDS011;62266;53.348;-1.496;2023-06-22T03:59:24;4.20;;;3.15;;
73919;SDS011;62266;53.348;-1.496;2023-06-22T04:02:08;5.50;;;3.60;;
73919;SDS011;62266;53.348;-1.496;2023-06-22T04:04:53;5.85;;;3.50;;
73919;SDS011;62266;53.348;-1.496;2023-06-22T04:07:36;5.25;;;3.88;;
73919;SDS011;62266;53.348;-1.496;2023-06-22T04:10:21;4.80;;;3.33;;
73919;SDS011;62266;53.348;-1.496;2023-06-22T04:13:04;6.28;;;3.50;;
73919;SDS011;62266;53.348;-1.496;2023-06-22T04:15:48;4.97;;;3.80;;
73919;SDS011;62266;53.348;-1.496;2023-06-22T04:18:32;6.45;;;3.92;;
73919;SDS011;62266;53.348;-1.496;2023-06-22T04:21:16;5.47;;;3.70;;
73919;SDS011;62266;53.348;-1.496;2023-06-22T04:24:00;7.07;;;3.80;;
73919;SDS011;62266;53.348;-1.496;2023-06-22T04:26:44;5.18;;;3.85;;
73919;SDS011;62266;53.348;-1.496;2023-06-22T04:29:31;8.85;;;4.47;;
73919;SDS011;62266;53.348;-1.496;2023-06-22T04:32:16;5.82;;;3.90;;
73919;SDS011;62266;53.348;-1.496;2023-06-22T04:35:00;6.97;;;4.35;;
73919;SDS011;62266;53.348;-1.496;2023-06-22T04:37:44;6.67;;;4.20;;
73919;SDS011;62266;53.348;-1.496;2023-06-22T04:40:32;8.05;;;3.80;;
73919;SDS011;62266;53.348;-1.496;2023-06-22T04:43:16;6.45;;;4.20;;
73919;SDS011;62266;53.348;-1.496;2023-06-22T04:46:00;4.70;;;3.72;;
73919;SDS011;62266;53.348;-1.496;2023-06-22T04:48:47;5.32;;;3.85;;
73919;SDS011;62266;53.348;-1.496;2023-06-22T04:51:31;4.83;;;3.83;;
73919;SDS011;62266;53.348;-1.496;2023-06-22T04:54:15;5.35;;;3.85;;
73919;SDS011;62266;53.348;-1.496;2023-06-22T04:56:59;5.40;;;3.97;;
73919;SDS011;62266;53.348;-1.496;2023-06-22T04:59:44;7.03;;;3.88;;
73919;SDS011;62266;53.348;-1.496;2023-06-22T05:02:29;7.13;;;4.32;;
73919;SDS011;62266;53.348;-1.496;2023-06-22T05:05:16;5.73;;;4.00;;
73919;SDS011;62266;53.348;-1.496;2023-06-22T05:08:00;7.15;;;3.47;;
73919;SDS011;62266;53.348;-1.496;2023-06-22T05:10:45;5.13;;;4.07;;
73919;SDS011;62266;53.348;-1.496;2023-06-22T05:13:29;5.85;;;3.90;;
73919;SDS011;62266;53.348;-1.496;2023-06-22T05:16:13;4.28;;;3.38;;
73919;SDS011;62266;53.348;-1.496;2023-06-22T05:18:56;4.93;;;3.63;;
73919;SDS011;62266;53.348;-1.496;2023-06-22T05:21:40;8.52;;;3.90;;
73919;SDS011;62266;53.348;-1.496;2023-06-22T05:24:24;5.75;;;4.57;;
73919;SDS011;62266;53.348;-1.496;2023-06-22T05:27:09;7.15;;;4.40;;
73919;SDS011;62266;53.348;-1.496;2023-06-22T05:29:53;5.60;;;4.05;;
73919;SDS011;62266;53.348;-1.496;2023-06-22T05:32:37;4.77;;;3.83;;
73919;SDS011;62266;53.348;-1.496;2023-06-22T05:35:21;6.45;;;4.00;;
73919;SDS011;62266;53.348;-1.496;2023-06-22T05:38:05;6.18;;;3.92;;
73919;SDS011;62266;53.348;-1.496;2023-06-22T05:40:49;6.20;;;3.78;;
73919;SDS011;62266;53.348;-1.496;2023-06-22T05:43:33;5.53;;;4.00;;
73919;SDS011;62266;53.348;-1.496;2023-06-22T05:46:18;5.87;;;4.23;;
73919;SDS011;62266;53.348;-1.496;2023-06-22T05:49:03;5.68;;;3.97;;
73919;SDS011;62266;53.348;-1.496;2023-06-22T05:51:47;6.10;;;3.85;;
73919;SDS011;62266;53.348;-1.496;2023-06-22T05:54:31;7.18;;;4.13;;
73919;SDS011;62266;53.348;-1.496;2023-06-22T05:57:14;6.15;;;4.07;;
73919;SDS011;62266;53.348;-1.496;2023-06-22T05:59:59;6.43;;;4.00;;
73919;SDS011;62266;53.348;-1.496;2023-06-22T06:02:42;5.95;;;3.88;;
73919;SDS011;62266;53.348;-1.496;2023-06-22T06:05:27;6.93;;;4.25;;
73919;SDS011;62266;53.348;-1.496;2023-06-22T06:08:11;5.93;;;4.35;;
73919;SDS011;62266;53.348;-1.496;2023-06-22T06:10:55;4.28;;;3.88;;
73919;SDS011;62266;53.348;-1.496;2023-06-22T06:13:40;9.10;;;4.37;;
73919;SDS011;62266;53.348;-1.496;2023-06-22T06:16:24;5.03;;;3.85;;
73919;SDS011;62266;53.348;-1.496;2023-06-22T06:19:09;5.80;;;3.72;;
73919;SDS011;62266;53.348;-1.496;2023-06-22T06:21:53;8.48;;;4.32;;
73919;SDS011;62266;53.348;-1.496;2023-06-22T06:24:37;6.72;;;4.45;;
73919;SDS011;62266;53.348;-1.496;2023-06-22T06:27:21;5.73;;;4.03;;
73919;SDS011;62266;53.348;-1.496;2023-06-22T06:30:05;8.50;;;4.45;;
73919;SDS011;62266;53.348;-1.496;2023-06-22T06:32:50;6.47;;;4.70;;
73919;SDS011;62266;53.348;-1.496;2023-06-22T06:35:34;4.43;;;3.65;;
73919;SDS011;62266;53.348;-1.496;2023-06-22T06:38:19;5.45;;;4.05;;
73919;SDS011;62266;53.348;-1.496;2023-06-22T06:41:03;5.77;;;4.13;;
73919;SDS011;62266;53.348;-1.496;2023-06-22T06:43:47;6.00;;;3.92;;
73919;SDS011;62266;53.348;-1.496;2023-06-22T06:46:31;8.52;;;4.00;;
73919;SDS011;62266;53.348;-1.496;2023-06-22T06:49:15;5.20;;;3.10;;
73919;SDS011;62266;53.348;-1.496;2023-06-22T06:51:59;5.13;;;3.20;;
73919;SDS011;62266;53.348;-1.496;2023-06-22T06:54:43;5.27;;;2.77;;
73919;SDS011;62266;53.348;-1.496;2023-06-22T06:57:27;4.57;;;3.40;;
73919;SDS011;62266;53.348;-1.496;2023-06-22T07:00:12;5.53;;;3.33;;
73919;SDS011;62266;53.348;-1.496;2023-06-22T07:02:57;5.65;;;2.90;;
73919;SDS011;62266;53.348;-1.496;2023-06-22T07:05:42;5.72;;;3.50;;
73919;SDS011;62266;53.348;-1.496;2023-06-22T07:08:26;5.17;;;3.33;;
73919;SDS011;62266;53.348;-1.496;2023-06-22T07:11:10;4.28;;;2.95;;
73919;SDS011;62266;53.348;-1.496;2023-06-22T07:13:54;3.13;;;2.80;;
73919;SDS011;62266;53.348;-1.496;2023-06-22T07:16:38;4.47;;;2.85;;
73919;SDS011;62266;53.348;-1.496;2023-06-22T07:19:25;4.70;;;2.97;;
73919;SDS011;62266;53.348;-1.496;2023-06-22T07:22:11;3.97;;;2.80;;
73919;SDS011;62266;53.348;-1.496;2023-06-22T07:24:55;4.13;;;2.60;;
73919;SDS011;62266;53.348;-1.496;2023-06-22T07:27:43;4.03;;;2.63;;
73919;SDS011;62266;53.348;-1.496;2023-06-22T07:30:40;5.65;;;2.90;;
73919;SDS011;62266;53.348;-1.496;2023-06-22T07:33:24;4.75;;;2.83;;
73919;SDS011;62266;53.348;-1.496;2023-06-22T07:36:08;5.03;;;3.33;;
73919;SDS011;62266;53.348;-1.496;2023-06-22T07:38:52;3.85;;;2.78;;
73919;SDS011;62266;53.348;-1.496;2023-06-22T07:41:36;3.03;;;2.67;;
73919;SDS011;62266;53.348;-1.496;2023-06-22T07:44:20;4.88;;;2.92;;
73919;SDS011;62266;53.348;-1.496;2023-06-22T07:47:04;3.83;;;2.50;;
73919;SDS011;62266;53.348;-1.496;2023-06-22T07:49:48;2.80;;;2.33;;
73919;SDS011;62266;53.348;-1.496;2023-06-22T07:52:35;3.15;;;2.85;;
73919;SDS011;62266;53.348;-1.496;2023-06-22T07:55:23;4.03;;;2.78;;
73919;SDS011;62266;53.348;-1.496;2023-06-22T07:58:10;3.38;;;2.67;;
73919;SDS011;62266;53.348;-1.496;2023-06-22T08:00:54;3.65;;;3.10;;
73919;SDS011;62266;53.348;-1.496;2023-06-22T08:03:38;3.73;;;2.53;;
73919;SDS011;62266;53.348;-1.496;2023-06-22T08:06:23;3.55;;;2.67;;
73919;SDS011;62266;53.348;-1.496;2023-06-22T08:09:07;5.50;;;2.80;;
73919;SDS011;62266;53.348;-1.496;2023-06-22T08:11:51;3.00;;;2.47;;
73919;SDS011;62266;53.348;-1.496;2023-06-22T08:14:35;4.47;;;3.35;;
73919;SDS011;62266;53.348;-1.496;2023-06-22T08:17:21;5.37;;;3.77;;
73919;SDS011;62266;53.348;-1.496;2023-06-22T08:20:05;6.35;;;3.17;;
73919;SDS011;62266;53.348;-1.496;2023-06-22T08:22:56;5.13;;;3.63;;
73919;SDS011;62266;53.348;-1.496;2023-06-22T08:25:41;5.18;;;3.60;;
73919;SDS011;62266;53.348;-1.496;2023-06-22T08:28:26;6.68;;;3.47;;
73919;SDS011;62266;53.348;-1.496;2023-06-22T08:31:14;6.07;;;3.37;;
73919;SDS011;62266;53.348;-1.496;2023-06-22T08:33:58;6.68;;;3.42;;
73919;SDS011;62266;53.348;-1.496;2023-06-22T08:36:42;6.45;;;4.97;;
73919;SDS011;62266;53.348;-1.496;2023-06-22T08:39:28;6.82;;;4.68;;
73919;SDS011;62266;53.348;-1.496;2023-06-22T08:42:12;6.45;;;4.30;;
73919;SDS011;62266;53.348;-1.496;2023-06-22T10:43:44;6.30;;;4.35;;
73919;SDS011;62266;53.348;-1.496;2023-06-22T10:46:28;6.27;;;4.13;;
73919;SDS011;62266;53.348;-1.496;2023-06-22T10:49:12;6.63;;;4.78;;
73919;SDS011;62266;53.348;-1.496;2023-06-22T10:51:56;6.22;;;4.35;;
73919;SDS011;62266;53.348;-1.496;2023-06-22T10:54:40;9.75;;;4.82;;
73919;SDS011;62266;53.348;-1.496;2023-06-22T10:57:25;6.97;;;4.85;;
73919;SDS011;62266;53.348;-1.496;2023-06-22T11:00:10;7.07;;;4.70;;
73919;SDS011;62266;53.348;-1.496;2023-06-22T11:02:55;6.63;;;4.82;;
73919;SDS011;62266;53.348;-1.496;2023-06-22T11:05:39;7.88;;;5.03;;
73919;SDS011;62266;53.348;-1.496;2023-06-22T11:08:23;8.10;;;5.15;;
73919;SDS011;62266;53.348;-1.496;2023-06-22T11:11:07;10.45;;;6.05;;
73919;SDS011;62266;53.348;-1.496;2023-06-22T11:13:52;10.70;;;6.00;;
73919;SDS011;62266;53.348;-1.496;2023-06-22T11:16:37;10.15;;;6.00;;
73919;SDS011;62266;53.348;-1.496;2023-06-22T11:19:20;10.18;;;6.15;;
73919;SDS011;62266;53.348;-1.496;2023-06-22T11:22:05;11.73;;;6.47;;
73919;SDS011;62266;53.348;-1.496;2023-06-22T11:24:49;7.40;;;5.35;;
73919;SDS011;62266;53.348;-1.496;2023-06-22T11:27:33;7.73;;;5.77;;
73919;SDS011;62266;53.348;-1.496;2023-06-22T11:30:17;8.25;;;5.78;;
73919;SDS011;62266;53.348;-1.496;2023-06-22T11:33:01;9.98;;;6.15;;
73919;SDS011;62266;53.348;-1.496;2023-06-22T11:35:45;11.15;;;6.47;;
73919;SDS011;62266;53.348;-1.496;2023-06-22T11:38:29;7.57;;;5.07;;
73919;SDS011;62266;53.348;-1.496;2023-06-22T11:41:14;11.90;;;6.30;;
73919;SDS011;62266;53.348;-1.496;2023-06-22T11:43:59;9.63;;;5.70;;
73919;SDS011;62266;53.348;-1.496;2023-06-22T11:46:43;9.45;;;6.35;;
73919;SDS011;62266;53.348;-1.496;2023-06-22T11:49:27;9.02;;;5.60;;
73919;SDS011;62266;53.348;-1.496;2023-06-22T11:52:11;9.77;;;5.95;;
73919;SDS011;62266;53.348;-1.496;2023-06-22T11:54:54;9.23;;;6.23;;
73919;SDS011;62266;53.348;-1.496;2023-06-22T11:57:39;7.85;;;5.30;;
73919;SDS011;62266;53.348;-1.496;2023-06-22T12:00:36;9.32;;;6.40;;
73919;SDS011;62266;53.348;-1.496;2023-06-22T12:03:20;10.27;;;6.38;;
73919;SDS011;62266;53.348;-1.496;2023-06-22T12:06:07;7.90;;;5.90;;
73919;SDS011;62266;53.348;-1.496;2023-06-22T12:08:51;8.03;;;5.70;;
73919;SDS011;62266;53.348;-1.496;2023-06-22T12:11:35;8.93;;;5.85;;
73919;SDS011;62266;53.348;-1.496;2023-06-22T12:14:19;10.10;;;6.30;;
73919;SDS011;62266;53.348;-1.496;2023-06-22T12:17:03;8.48;;;6.47;;
73919;SDS011;62266;53.348;-1.496;2023-06-22T12:19:47;9.07;;;6.25;;
73919;SDS011;62266;53.348;-1.496;2023-06-22T12:22:34;8.23;;;6.27;;
73919;SDS011;62266;53.348;-1.496;2023-06-22T12:25:18;9.57;;;6.22;;
73919;SDS011;62266;53.348;-1.496;2023-06-22T12:28:02;11.40;;;6.93;;
73919;SDS011;62266;53.348;-1.496;2023-06-22T12:30:46;8.55;;;5.97;;
73919;SDS011;62266;53.348;-1.496;2023-06-22T12:33:30;8.10;;;6.00;;
73919;SDS011;62266;53.348;-1.496;2023-06-22T12:36:14;10.70;;;6.13;;
73919;SDS011;62266;53.348;-1.496;2023-06-22T12:39:00;10.40;;;6.10;;
73919;SDS011;62266;53.348;-1.496;2023-06-22T12:41:44;10.52;;;5.55;;
73919;SDS011;62266;53.348;-1.496;2023-06-22T12:44:28;7.47;;;4.93;;
73919;SDS011;62266;53.348;-1.496;2023-06-22T12:47:12;7.30;;;4.15;;
73919;SDS011;62266;53.348;-1.496;2023-06-22T12:49:56;4.47;;;3.43;;
73919;SDS011;62266;53.348;-1.496;2023-06-22T12:52:40;4.55;;;3.50;;
73919;SDS011;62266;53.348;-1.496;2023-06-22T12:55:24;5.50;;;3.25;;
73919;SDS011;62266;53.348;-1.496;2023-06-22T12:58:08;3.95;;;3.55;;
73919;SDS011;62266;53.348;-1.496;2023-06-22T13:00:52;4.57;;;3.50;;
73919;SDS011;62266;53.348;-1.496;2023-06-22T13:03:37;3.93;;;3.10;;
73919;SDS011;62266;53.348;-1.496;2023-06-22T13:06:21;3.70;;;3.22;;
73919;SDS011;62266;53.348;-1.496;2023-06-22T13:09:06;5.28;;;4.10;;
73919;SDS011;62266;53.348;-1.496;2023-06-22T13:11:49;4.05;;;3.25;;
73919;SDS011;62266;53.348;-1.496;2023-06-22T13:14:34;3.00;;;2.65;;
73919;SDS011;62266;53.348;-1.496;2023-06-22T13:17:18;4.30;;;2.90;;
73919;SDS011;62266;53.348;-1.496;2023-06-22T13:20:02;2.80;;;2.50;;
73919;SDS011;62266;53.348;-1.496;2023-06-22T13:22:48;3.53;;;2.72;;
73919;SDS011;62266;53.348;-1.496;2023-06-22T13:25:32;3.65;;;2.90;;
73919;SDS011;62266;53.348;-1.496;2023-06-22T13:28:16;4.63;;;3.00;;
73919;SDS011;62266;53.348;-1.496;2023-06-22T13:31:00;3.13;;;2.83;;
73919;SDS011;62266;53.348;-1.496;2023-06-22T13:33:44;3.30;;;2.97;;
73919;SDS011;62266;53.348;-1.496;2023-06-22T13:36:31;5.55;;;3.20;;
73919;SDS011;62266;53.348;-1.496;2023-06-22T13:39:16;3.15;;;2.67;;
73919;SDS011;62266;53.348;-1.496;2023-06-22T13:42:00;3.78;;;2.97;;
73919;SDS011;62266;53.348;-1.496;2023-06-22T13:44:44;4.93;;;3.30;;
73919;SDS011;62266;53.348;-1.496;2023-06-22T13:47:28;3.22;;;2.92;;
73919;SDS011;62266;53.348;-1.496;2023-06-22T13:50:13;3.25;;;2.80;;
73919;SDS011;62266;53.348;-1.496;2023-06-22T13:52:57;4.00;;;3.30;;
73919;SDS011;62266;53.348;-1.496;2023-06-22T13:55:41;2.88;;;2.60;;
73919;SDS011;62266;53.348;-1.496;2023-06-22T13:58:26;3.53;;;3.07;;
73919;SDS011;62266;53.348;-1.496;2023-06-22T14:01:10;3.53;;;2.88;;
73919;SDS011;62266;53.348;-1.496;2023-06-22T14:03:54;2.95;;;2.70;;
73919;SDS011;62266;53.348;-1.496;2023-06-22T14:06:38;3.22;;;2.78;;
73919;SDS011;62266;53.348;-1.496;2023-06-22T14:09:22;3.40;;;2.78;;
73919;SDS011;62266;53.348;-1.496;2023-06-22T14:12:07;4.97;;;2.83;;
73919;SDS011;62266;53.348;-1.496;2023-06-22T14:14:51;3.13;;;2.83;;
73919;SDS011;62266;53.348;-1.496;2023-06-22T14:17:35;2.78;;;2.50;;
73919;SDS011;62266;53.348;-1.496;2023-06-22T14:20:19;3.15;;;2.85;;
73919;SDS011;62266;53.348;-1.496;2023-06-22T14:23:03;2.67;;;2.45;;
73919;SDS011;62266;53.348;-1.496;2023-06-22T14:25:47;2.73;;;2.50;;
73919;SDS011;62266;53.348;-1.496;2023-06-22T14:28:31;4.15;;;2.60;;
73919;SDS011;62266;53.348;-1.496;2023-06-22T14:31:18;2.97;;;2.70;;
73919;SDS011;62266;53.348;-1.496;2023-06-22T14:34:03;3.78;;;2.65;;
73919;SDS011;62266;53.348;-1.496;2023-06-22T14:36:47;2.90;;;2.35;;
73919;SDS011;62266;53.348;-1.496;2023-06-22T14:39:32;4.20;;;2.80;;
73919;SDS011;62266;53.348;-1.496;2023-06-22T14:42:17;3.25;;;2.80;;
73919;SDS011;62266;53.348;-1.496;2023-06-22T14:45:01;4.25;;;3.50;;
73919;SDS011;62266;53.348;-1.496;2023-06-22T14:47:45;7.05;;;5.70;;
73919;SDS011;62266;53.348;-1.496;2023-06-22T14:50:29;12.95;;;9.25;;
73919;SDS011;62266;53.348;-1.496;2023-06-22T14:53:14;8.00;;;6.63;;
73919;SDS011;62266;53.348;-1.496;2023-06-22T14:55:58;5.38;;;4.00;;
73919;SDS011;62266;53.348;-1.496;2023-06-22T14:58:45;3.85;;;3.42;;
73919;SDS011;62266;53.348;-1.496;2023-06-22T15:01:29;6.35;;;5.20;;
73919;SDS011;62266;53.348;-1.496;2023-06-22T15:04:13;6.43;;;5.70;;
73919;SDS011;62266;53.348;-1.496;2023-06-22T15:06:58;7.00;;;5.77;;
73919;SDS011;62266;53.348;-1.496;2023-06-22T15:09:42;6.40;;;4.60;;
73919;SDS011;62266;53.348;-1.496;2023-06-22T15:12:29;4.85;;;4.03;;
73919;SDS011;62266;53.348;-1.496;2023-06-22T15:15:13;5.55;;;3.63;;
73919;SDS011;62266;53.348;-1.496;2023-06-22T15:17:57;7.65;;;5.35;;
73919;SDS011;62266;53.348;-1.496;2023-06-22T15:20:41;6.07;;;4.27;;
73919;SDS011;62266;53.348;-1.496;2023-06-22T15:23:29;4.80;;;3.55;;
73919;SDS011;62266;53.348;-1.496;2023-06-22T15:26:20;4.45;;;3.30;;
73919;SDS011;62266;53.348;-1.496;2023-06-22T15:29:04;4.10;;;3.50;;
73919;SDS011;62266;53.348;-1.496;2023-06-22T15:31:49;4.72;;;3.60;;
73919;SDS011;62266;53.348;-1.496;2023-06-22T15:34:33;4.27;;;3.53;;
73919;SDS011;62266;53.348;-1.496;2023-06-22T15:37:18;4.30;;;3.45;;
73919;SDS011;62266;53.348;-1.496;2023-06-22T15:40:02;4.28;;;3.75;;
73919;SDS011;62266;53.348;-1.496;2023-06-22T15:42:49;6.43;;;4.80;;
73919;SDS011;62266;53.348;-1.496;2023-06-22T15:45:34;7.00;;;4.03;;
73919;SDS011;62266;53.348;-1.496;2023-06-22T15:48:18;5.87;;;3.60;;
73919;SDS011;62266;53.348;-1.496;2023-06-22T15:51:02;5.18;;;3.58;;
73919;SDS011;62266;53.348;-1.496;2023-06-22T15:53:47;3.88;;;3.17;;
73919;SDS011;62266;53.348;-1.496;2023-06-22T15:56:32;5.18;;;3.50;;
73919;SDS011;62266;53.348;-1.496;2023-06-22T15:59:20;4.50;;;3.50;;
73919;SDS011;62266;53.348;-1.496;2023-06-22T16:02:04;4.77;;;3.70;;
73919;SDS011;62266;53.348;-1.496;2023-06-22T16:04:48;3.75;;;3.20;;
73919;SDS011;62266;53.348;-1.496;2023-06-22T16:07:32;4.40;;;3.40;;
73919;SDS011;62266;53.348;-1.496;2023-06-22T16:10:17;4.32;;;3.30;;
73919;SDS011;62266;53.348;-1.496;2023-06-22T16:13:01;4.20;;;3.45;;
73919;SDS011;62266;53.348;-1.496;2023-06-22T16:15:45;3.30;;;3.00;;
73919;SDS011;62266;53.348;-1.496;2023-06-22T16:18:30;5.38;;;3.20;;
73919;SDS011;62266;53.348;-1.496;2023-06-22T16:21:14;6.18;;;3.85;;
73919;SDS011;62266;53.348;-1.496;2023-06-22T16:23:58;4.05;;;3.58;;
73919;SDS011;62266;53.348;-1.496;2023-06-22T16:26:43;3.78;;;3.38;;
73919;SDS011;62266;53.348;-1.496;2023-06-22T16:29:27;4.40;;;3.90;;
73919;SDS011;62266;53.348;-1.496;2023-06-22T16:32:11;10.02;;;4.38;;
73919;SDS011;62266;53.348;-1.496;2023-06-22T16:34:55;5.55;;;4.05;;
73919;SDS011;62266;53.348;-1.496;2023-06-22T16:37:39;5.35;;;4.13;;
73919;SDS011;62266;53.348;-1.496;2023-06-22T16:40:24;4.70;;;3.53;;
73919;SDS011;62266;53.348;-1.496;2023-06-22T16:43:08;4.20;;;3.40;;
73919;SDS011;62266;53.348;-1.496;2023-06-22T16:45:52;4.00;;;3.00;;
73919;SDS011;62266;53.348;-1.496;2023-06-22T16:48:36;4.38;;;2.95;;
73919;SDS011;62266;53.348;-1.496;2023-06-22T16:51:21;3.55;;;3.00;;
73919;SDS011;62266;53.348;-1.496;2023-06-22T16:54:07;4.20;;;3.80;;
73919;SDS011;62266;53.348;-1.496;2023-06-22T16:56:51;4.77;;;3.37;;
73919;SDS011;62266;53.348;-1.496;2023-06-22T16:59:36;4.38;;;3.30;;
73919;SDS011;62266;53.348;-1.496;2023-06-22T17:02:20;3.90;;;3.47;;
73919;SDS011;62266;53.348;-1.496;2023-06-22T17:05:06;5.30;;;3.30;;
73919;SDS011;62266;53.348;-1.496;2023-06-22T17:07:53;3.53;;;3.20;;
73919;SDS011;62266;53.348;-1.496;2023-06-22T17:10:41;4.10;;;3.20;;
73919;SDS011;62266;53.348;-1.496;2023-06-22T17:13:26;4.95;;;3.70;;
73919;SDS011;62266;53.348;-1.496;2023-06-22T17:16:11;6.50;;;4.35;;
73919;SDS011;62266;53.348;-1.496;2023-06-22T17:18:55;8.00;;;3.85;;
73919;SDS011;62266;53.348;-1.496;2023-06-22T17:21:41;4.45;;;4.00;;
73919;SDS011;62266;53.348;-1.496;2023-06-22T17:24:26;4.53;;;3.73;;
73919;SDS011;62266;53.348;-1.496;2023-06-22T17:27:10;5.28;;;3.83;;
73919;SDS011;62266;53.348;-1.496;2023-06-22T17:30:07;4.53;;;3.60;;
73919;SDS011;62266;53.348;-1.496;2023-06-22T17:32:53;4.25;;;3.40;;
73919;SDS011;62266;53.348;-1.496;2023-06-22T17:35:55;4.53;;;3.70;;
73919;SDS011;62266;53.348;-1.496;2023-06-22T17:38:42;4.20;;;3.40;;
73919;SDS011;62266;53.348;-1.496;2023-06-22T17:41:31;5.25;;;3.88;;
73919;SDS011;62266;53.348;-1.496;2023-06-22T17:44:20;5.03;;;3.10;;
73919;SDS011;62266;53.348;-1.496;2023-06-22T17:47:08;5.25;;;3.88;;
73919;SDS011;62266;53.348;-1.496;2023-06-22T17:49:52;8.02;;;4.35;;
73919;SDS011;62266;53.348;-1.496;2023-06-22T17:52:54;4.80;;;4.30;;
73919;SDS011;62266;53.348;-1.496;2023-06-22T17:55:41;7.60;;;5.78;;
73919;SDS011;62266;53.348;-1.496;2023-06-22T17:58:26;5.85;;;4.28;;
73919;SDS011;62266;53.348;-1.496;2023-06-22T18:01:10;5.38;;;3.55;;
73919;SDS011;62266;53.348;-1.496;2023-06-22T18:03:57;4.05;;;3.65;;
73919;SDS011;62266;53.348;-1.496;2023-06-22T18:06:46;4.03;;;3.63;;
73919;SDS011;62266;53.348;-1.496;2023-06-22T18:09:31;4.53;;;3.67;;
73919;SDS011;62266;53.348;-1.496;2023-06-22T18:12:16;4.40;;;3.50;;
73919;SDS011;62266;53.348;-1.496;2023-06-22T18:15:01;6.05;;;4.10;;
73919;SDS011;62266;53.348;-1.496;2023-06-22T18:17:46;5.72;;;3.92;;
73919;SDS011;62266;53.348;-1.496;2023-06-22T18:20:31;6.90;;;4.10;;
73919;SDS011;62266;53.348;-1.496;2023-06-22T18:23:17;3.85;;;3.35;;
73919;SDS011;62266;53.348;-1.496;2023-06-22T18:26:03;3.78;;;3.47;;
73919;SDS011;62266;53.348;-1.496;2023-06-22T18:28:52;5.25;;;3.78;;
73919;SDS011;62266;53.348;-1.496;2023-06-22T18:31:37;3.50;;;3.20;;
73919;SDS011;62266;53.348;-1.496;2023-06-22T18:34:21;4.17;;;3.40;;
73919;SDS011;62266;53.348;-1.496;2023-06-22T18:37:10;5.32;;;3.38;;
73919;SDS011;62266;53.348;-1.496;2023-06-22T18:39:57;5.28;;;3.63;;
73919;SDS011;62266;53.348;-1.496;2023-06-22T18:42:45;3.47;;;3.15;;
73919;SDS011;62266;53.348;-1.496;2023-06-22T18:45:30;4.32;;;3.42;;
73919;SDS011;62266;53.348;-1.496;2023-06-22T18:48:23;5.53;;;3.97;;
73919;SDS011;62266;53.348;-1.496;2023-06-22T18:51:10;4.65;;;3.80;;
73919;SDS011;62266;53.348;-1.496;2023-06-22T18:54:04;6.35;;;3.97;;
73919;SDS011;62266;53.348;-1.496;2023-06-22T18:56:56;6.55;;;4.63;;
73919;SDS011;62266;53.348;-1.496;2023-06-22T18:59:42;5.63;;;4.30;;
73919;SDS011;62266;53.348;-1.496;2023-06-22T19:05:16;5.05;;;3.78;;
73919;SDS011;62266;53.348;-1.496;2023-06-22T19:08:02;4.47;;;3.60;;
73919;SDS011;62266;53.348;-1.496;2023-06-22T19:10:47;5.00;;;3.70;;
73919;SDS011;62266;53.348;-1.496;2023-06-22T19:13:31;4.32;;;3.92;;
73919;SDS011;62266;53.348;-1.496;2023-06-22T19:16:16;4.70;;;3.80;;
73919;SDS011;62266;53.348;-1.496;2023-06-22T19:19:11;4.88;;;3.88;;
73919;SDS011;62266;53.348;-1.496;2023-06-22T19:21:59;4.43;;;3.90;;
73919;SDS011;62266;53.348;-1.496;2023-06-22T19:24:48;5.88;;;3.55;;
73919;SDS011;62266;53.348;-1.496;2023-06-22T19:27:34;4.35;;;3.50;;
73919;SDS011;62266;53.348;-1.496;2023-06-22T19:30:18;5.90;;;3.53;;
73919;SDS011;62266;53.348;-1.496;2023-06-22T19:33:03;5.10;;;3.67;;
73919;SDS011;62266;53.348;-1.496;2023-06-22T19:35:51;5.70;;;3.60;;
73919;SDS011;62266;53.348;-1.496;2023-06-22T19:38:38;5.68;;;3.65;;
73919;SDS011;62266;53.348;-1.496;2023-06-22T19:41:22;6.43;;;4.22;;
73919;SDS011;62266;53.348;-1.496;2023-06-22T19:44:06;6.03;;;4.40;;
73919;SDS011;62266;53.348;-1.496;2023-06-22T19:46:52;6.40;;;4.40;;
73919;SDS011;62266;53.348;-1.496;2023-06-22T19:49:36;8.57;;;4.45;;
73919;SDS011;62266;53.348;-1.496;2023-06-22T19:52:20;5.95;;;5.18;;
73919;SDS011;62266;53.348;-1.496;2023-06-22T19:55:07;8.45;;;5.18;;
73919;SDS011;62266;53.348;-1.496;2023-06-22T19:57:51;5.73;;;4.70;;
73919;SDS011;62266;53.348;-1.496;2023-06-22T20:00:35;7.13;;;5.20;;
73919;SDS011;62266;53.348;-1.496;2023-06-22T20:03:26;7.50;;;5.47;;
73919;SDS011;62266;53.348;-1.496;2023-06-22T20:06:12;8.32;;;5.35;;
73919;SDS011;62266;53.348;-1.496;2023-06-22T20:08:58;6.60;;;4.55;;
73919;SDS011;62266;53.348;-1.496;2023-06-22T20:11:43;7.37;;;4.70;;
73919;SDS011;62266;53.348;-1.496;2023-06-22T20:14:32;7.68;;;4.38;;
73919;SDS011;62266;53.348;-1.496;2023-06-22T20:17:16;6.18;;;4.60;;
73919;SDS011;62266;53.348;-1.496;2023-06-22T20:20:01;7.10;;;4.22;;
73919;SDS011;62266;53.348;-1.496;2023-06-22T20:22:45;7.85;;;4.60;;
73919;SDS011;62266;53.348;-1.496;2023-06-22T20:25:31;5.87;;;4.50;;
73919;SDS011;62266;53.348;-1.496;2023-06-22T20:28:18;6.53;;;4.85;;
73919;SDS011;62266;53.348;-1.496;2023-06-22T20:31:06;6.97;;;4.88;;
73919;SDS011;62266;53.348;-1.496;2023-06-22T20:34:02;5.93;;;4.47;;
73919;SDS011;62266;53.348;-1.496;2023-06-22T20:36:46;6.72;;;4.88;;
73919;SDS011;62266;53.348;-1.496;2023-06-22T20:39:30;6.73;;;4.60;;
73919;SDS011;62266;53.348;-1.496;2023-06-22T20:42:15;6.35;;;4.95;;
73919;SDS011;62266;53.348;-1.496;2023-06-22T20:45:00;6.25;;;4.68;;
73919;SDS011;62266;53.348;-1.496;2023-06-22T20:47:45;5.78;;;4.68;;
73919;SDS011;62266;53.348;-1.496;2023-06-22T20:50:29;6.97;;;4.95;;
73919;SDS011;62266;53.348;-1.496;2023-06-22T20:53:13;7.53;;;5.13;;
73919;SDS011;62266;53.348;-1.496;2023-06-22T20:56:01;5.60;;;4.90;;
73919;SDS011;62266;53.348;-1.496;2023-06-22T20:58:45;5.80;;;4.45;;
73919;SDS011;62266;53.348;-1.496;2023-06-22T21:01:29;5.30;;;4.80;;
73919;SDS011;62266;53.348;-1.496;2023-06-22T21:04:16;5.13;;;4.50;;
73919;SDS011;62266;53.348;-1.496;2023-06-22T21:07:00;6.20;;;4.93;;
73919;SDS011;62266;53.348;-1.496;2023-06-22T21:09:45;6.07;;;4.65;;
73919;SDS011;62266;53.348;-1.496;2023-06-22T21:12:29;8.00;;;5.43;;
73919;SDS011;62266;53.348;-1.496;2023-06-22T21:15:13;8.68;;;4.75;;
73919;SDS011;62266;53.348;-1.496;2023-06-22T21:17:57;6.00;;;4.63;;
73919;SDS011;62266;53.348;-1.496;2023-06-22T21:20:42;7.43;;;4.77;;
73919;SDS011;62266;53.348;-1.496;2023-06-22T21:23:25;6.07;;;4.60;;
73919;SDS011;62266;53.348;-1.496;2023-06-22T21:26:09;6.03;;;5.03;;
73919;SDS011;62266;53.348;-1.496;2023-06-22T21:28:53;5.97;;;4.68;;
73919;SDS011;62266;53.348;-1.496;2023-06-22T21:31:37;7.78;;;5.18;;
73919;SDS011;62266;53.348;-1.496;2023-06-22T21:34:22;8.77;;;4.50;;
73919;SDS011;62266;53.348;-1.496;2023-06-22T21:37:06;7.03;;;4.70;;
73919;SDS011;62266;53.348;-1.496;2023-06-22T21:39:50;8.70;;;5.07;;
73919;SDS011;62266;53.348;-1.496;2023-06-22T21:42:35;5.45;;;4.30;;
73919;SDS011;62266;53.348;-1.496;2023-06-22T21:45:19;7.25;;;5.07;;
73919;SDS011;62266;53.348;-1.496;2023-06-22T21:48:03;8.97;;;5.50;;
73919;SDS011;62266;53.348;-1.496;2023-06-22T21:50:47;6.55;;;5.47;;
73919;SDS011;62266;53.348;-1.496;2023-06-22T21:53:32;7.25;;;5.43;;
73919;SDS011;62266;53.348;-1.496;2023-06-22T21:56:16;9.10;;;5.45;;
73919;SDS011;62266;53.348;-1.496;2023-06-22T21:59:00;9.27;;;5.28;;
73919;SDS011;62266;53.348;-1.496;2023-06-22T22:01:44;8.17;;;5.77;;